Time;durP1;ratioP1;P1;durP2;ratioP2;P2;SDS_P1;SDS_P2;PMS_P1;PMS_P2;Temp;Humidity;BMP_temperature;BMP_pressure;BME280_temperature;BME280_humidity;BME280_pressure;Samples;Min_cycle;Max_cycle;Signal;HPM_P1;HPM_P2
2023/05/06 00:00:11;;;;;;;5.43;4.93;;;;;;;;;;5097636;28;20044;-83
2023/05/06 00:02:37;;;;;;;3.70;3.50;;;;;;;;;;5081152;28;20126;-83
2023/05/06 00:05:03;;;;;;;5.00;4.60;;;;;;;;;;5080697;28;20143;-83
2023/05/06 00:07:30;;;;;;;6.65;3.95;;;;;;;;;;5080223;28;20049;-83
2023/05/06 00:09:56;;;;;;;4.00;3.60;;;;;;;;;;5098015;28;20066;-83
2023/05/06 00:12:22;;;;;;;5.15;4.85;;;;;;;;;;5064281;28;20051;-83
2023/05/06 00:14:48;;;;;;;4.97;4.68;;;;;;;;;;5063812;28;20066;-83
2023/05/06 00:17:14;;;;;;;4.93;4.70;;;;;;;;;;5096892;28;20454;-83
2023/05/06 00:19:41;;;;;;;4.70;4.45;;;;;;;;;;5080858;28;20220;-82
2023/05/06 00:22:07;;;;;;;6.38;5.78;;;;;;;;;;5080302;28;20395;-83
2023/05/06 00:24:33;;;;;;;4.55;4.35;;;;;;;;;;5097356;28;20086;-83
2023/05/06 00:27:00;;;;;;;5.72;5.15;;;;;;;;;;5080251;28;20475;-83
2023/05/06 00:29:26;;;;;;;4.90;4.47;;;;;;;;;;5097127;28;20050;-83
2023/05/06 00:31:52;;;;;;;5.45;5.15;;;;;;;;;;5080443;28;20039;-83
2023/05/06 00:34:18;;;;;;;4.53;4.30;;;;;;;;;;5080731;28;20455;-83
2023/05/06 00:36:44;;;;;;;4.63;4.22;;;;;;;;;;5080955;28;20100;-83
2023/05/06 00:39:11;;;;;;;5.15;4.80;;;;;;;;;;5080048;28;20040;-83
2023/05/06 00:41:37;;;;;;;5.03;4.60;;;;;;;;;;5096611;28;20047;-83
2023/05/06 00:44:03;;;;;;;5.93;5.45;;;;;;;;;;5080329;28;20055;-83
2023/05/06 00:46:29;;;;;;;5.10;4.68;;;;;;;;;;5096629;28;20048;-83
2023/05/06 00:48:55;;;;;;;5.65;5.15;;;;;;;;;;5079577;28;20055;-83
2023/05/06 00:51:21;;;;;;;5.47;5.07;;;;;;;;;;5079549;28;20043;-83
2023/05/06 00:53:47;;;;;;;6.40;5.95;;;;;;;;;;5096464;28;20136;-83
2023/05/06 00:56:14;;;;;;;4.55;4.15;;;;;;;;;;5080011;28;20427;-83
2023/05/06 00:58:40;;;;;;;4.47;4.00;;;;;;;;;;5096760;28;20048;-83
2023/05/06 01:01:07;;;;;;;6.53;4.55;;;;;;;;;;5096497;28;20055;-83
2023/05/06 01:03:33;;;;;;;5.13;4.72;;;;;;;;;;5096318;28;20044;-83
2023/05/06 01:06:17;;;;;;;5.57;5.28;;;;;;;;;;5096776;28;20075;-82
2023/05/06 01:08:47;;;;;;;5.43;5.03;;;;;;;;;;5079803;28;20130;-83
2023/05/06 01:11:16;;;;;;;4.55;4.18;;;;;;;;;;5096042;28;20403;-83
2023/05/06 01:13:46;;;;;;;4.53;4.13;;;;;;;;;;5096853;28;20087;-83
2023/05/06 01:16:14;;;;;;;3.88;3.67;;;;;;;;;;5076325;28;20454;-83
2023/05/06 01:18:42;;;;;;;5.38;4.85;;;;;;;;;;5076081;28;20149;-83
2023/05/06 01:21:08;;;;;;;5.32;4.82;;;;;;;;;;5076959;28;20131;-83
2023/05/06 01:23:51;;;;;;;5.47;5.05;;;;;;;;;;5093122;28;20056;-82
2023/05/06 01:26:17;;;;;;;5.28;4.95;;;;;;;;;;5092814;28;20051;-83
2023/05/06 01:28:43;;;;;;;4.80;4.25;;;;;;;;;;5059405;28;20090;-83
2023/05/06 01:31:11;;;;;;;4.80;4.55;;;;;;;;;;5059508;28;20048;-84
2023/05/06 01:34:00;;;;;;;4.80;4.38;;;;;;;;;;5092729;28;20076;-83
2023/05/06 01:36:38;;;;;;;3.65;3.45;;;;;;;;;;5093308;28;20052;-83
2023/05/06 01:39:18;;;;;;;2.67;2.47;;;;;;;;;;5076670;28;20048;-83
2023/05/06 01:41:45;;;;;;;3.08;2.88;;;;;;;;;;5092983;28;20135;-83
2023/05/06 01:44:11;;;;;;;3.28;2.40;;;;;;;;;;5076063;28;20046;-83
2023/05/06 01:46:38;;;;;;;2.50;2.40;;;;;;;;;;5092900;28;20423;-83
2023/05/06 01:49:06;;;;;;;2.80;2.55;;;;;;;;;;5076610;28;20087;-83
2023/05/06 01:51:33;;;;;;;2.67;2.10;;;;;;;;;;5076614;28;20139;-83
2023/05/06 01:53:59;;;;;;;3.97;3.42;;;;;;;;;;5092243;28;20053;-83
2023/05/06 01:56:28;;;;;;;3.30;2.35;;;;;;;;;;5092498;28;20472;-83
2023/05/06 01:58:58;;;;;;;2.05;1.95;;;;;;;;;;5092545;28;20061;-83
2023/05/06 02:01:24;;;;;;;2.40;2.30;;;;;;;;;;5077671;28;20059;-83
2023/05/06 02:03:51;;;;;;;3.92;2.95;;;;;;;;;;5096805;28;20066;-82
2023/05/06 02:06:17;;;;;;;2.90;2.70;;;;;;;;;;5079853;28;20052;-82
2023/05/06 02:08:43;;;;;;;3.20;2.80;;;;;;;;;;5097355;28;20048;-83
2023/05/06 02:11:09;;;;;;;2.65;2.45;;;;;;;;;;5096177;28;20048;-83
2023/05/06 02:13:35;;;;;;;5.53;3.15;;;;;;;;;;5079215;28;20040;-83
2023/05/06 02:16:01;;;;;;;3.35;3.20;;;;;;;;;;5079158;28;20052;-83
2023/05/06 02:18:28;;;;;;;2.58;2.47;;;;;;;;;;5097292;28;20051;-83
2023/05/06 02:20:54;;;;;;;2.83;2.63;;;;;;;;;;5095914;28;20043;-82
2023/05/06 02:23:20;;;;;;;3.17;2.97;;;;;;;;;;5096204;28;20051;-83
2023/05/06 02:25:46;;;;;;;3.15;2.95;;;;;;;;;;5096191;28;20507;-83
2023/05/06 02:28:12;;;;;;;3.53;3.33;;;;;;;;;;5079189;28;20072;-82
2023/05/06 02:30:38;;;;;;;6.97;6.38;;;;;;;;;;5079474;28;20460;-83
2023/05/06 02:33:04;;;;;;;5.68;5.18;;;;;;;;;;5079729;28;20101;-83
2023/05/06 02:35:30;;;;;;;5.88;5.47;;;;;;;;;;5096887;28;20051;-83
2023/05/06 02:37:57;;;;;;;4.30;3.88;;;;;;;;;;5096713;28;20528;-83
2023/05/06 02:40:23;;;;;;;4.95;4.57;;;;;;;;;;5096149;28;20044;-83
2023/05/06 02:42:49;;;;;;;4.97;4.60;;;;;;;;;;5095255;28;20518;-83
2023/05/06 02:45:15;;;;;;;3.88;3.78;;;;;;;;;;5096592;28;20056;-83
2023/05/06 02:47:41;;;;;;;4.47;4.25;;;;;;;;;;5095736;28;20040;-83
2023/05/06 02:50:07;;;;;;;5.47;3.95;;;;;;;;;;5095678;28;20083;-83
2023/05/06 02:52:33;;;;;;;4.20;3.97;;;;;;;;;;5095300;28;20044;-83
2023/05/06 02:55:00;;;;;;;4.50;4.30;;;;;;;;;;5079052;28;20040;-83
2023/05/06 02:57:26;;;;;;;5.40;4.75;;;;;;;;;;5078918;28;20050;-83
2023/05/06 02:59:52;;;;;;;15.02;11.00;;;;;;;;;;5078704;28;20069;-83
2023/05/06 03:02:18;;;;;;;7.13;6.63;;;;;;;;;;5095139;28;20439;-83
2023/05/06 03:04:44;;;;;;;10.15;9.30;;;;;;;;;;5095339;28;20044;-83
2023/05/06 03:07:11;;;;;;;8.68;7.97;;;;;;;;;;5079321;28;20040;-83
2023/05/06 03:09:38;;;;;;;8.95;8.05;;;;;;;;;;5096056;28;20054;-83
2023/05/06 03:12:05;;;;;;;8.77;8.20;;;;;;;;;;5061756;28;20039;-83
2023/05/06 03:14:31;;;;;;;8.77;8.07;;;;;;;;;;5077113;28;20044;-83
2023/05/06 03:16:57;;;;;;;8.35;7.65;;;;;;;;;;5077975;28;20063;-83
2023/05/06 03:19:23;;;;;;;6.30;5.82;;;;;;;;;;5095113;28;20047;-83
2023/05/06 03:21:49;;;;;;;7.10;6.55;;;;;;;;;;5095895;28;20036;-83
2023/05/06 03:24:15;;;;;;;7.70;7.07;;;;;;;;;;5078513;28;20119;-83
2023/05/06 03:26:41;;;;;;;6.57;6.15;;;;;;;;;;5095019;28;20048;-83
2023/05/06 03:29:07;;;;;;;6.07;5.68;;;;;;;;;;5094773;28;20487;-83
2023/05/06 03:31:33;;;;;;;7.30;6.68;;;;;;;;;;5094846;28;20039;-83
2023/05/06 03:33:59;;;;;;;7.63;6.90;;;;;;;;;;5077776;28;20044;-83
2023/05/06 03:36:26;;;;;;;5.72;5.30;;;;;;;;;;5078867;28;20052;-83
2023/05/06 03:38:53;;;;;;;5.38;4.97;;;;;;;;;;5078096;28;20082;-83
2023/05/06 03:41:20;;;;;;;5.25;4.95;;;;;;;;;;5094761;28;20059;-83
2023/05/06 03:43:46;;;;;;;6.75;6.28;;;;;;;;;;5095394;28;20090;-83
2023/05/06 03:46:12;;;;;;;5.20;4.95;;;;;;;;;;5077745;28;20058;-83
2023/05/06 03:48:38;;;;;;;5.80;5.50;;;;;;;;;;5077848;28;20047;-83
2023/05/06 03:51:04;;;;;;;5.80;5.50;;;;;;;;;;5078031;28;20488;-83
2023/05/06 03:53:30;;;;;;;6.88;6.45;;;;;;;;;;5094187;28;20495;-83
2023/05/06 03:55:57;;;;;;;6.78;6.35;;;;;;;;;;5095269;28;20131;-83
2023/05/06 03:58:23;;;;;;;5.50;5.18;;;;;;;;;;5094322;28;20044;-83
2023/05/06 04:00:50;;;;;;;9.82;7.85;;;;;;;;;;5077866;28;20048;-83
2023/05/06 04:03:16;;;;;;;9.48;8.57;;;;;;;;;;5077279;28;20177;-83
2023/05/06 04:05:42;;;;;;;18.45;13.00;;;;;;;;;;5095002;28;20094;-83
2023/05/06 04:08:08;;;;;;;8.65;7.85;;;;;;;;;;5060714;28;20059;-82
2023/05/06 04:10:38;;;;;;;9.63;8.73;;;;;;;;;;5094132;28;20075;-83
2023/05/06 04:13:04;;;;;;;10.30;9.40;;;;;;;;;;5095002;28;20048;-83
2023/05/06 04:15:32;;;;;;;11.18;9.52;;;;;;;;;;5060051;28;20062;-83
2023/05/06 04:17:59;;;;;;;9.15;8.27;;;;;;;;;;5094982;28;20055;-83
2023/05/06 04:20:25;;;;;;;10.88;9.05;;;;;;;;;;5094946;28;20048;-83
2023/05/06 04:22:51;;;;;;;10.45;9.45;;;;;;;;;;5093901;28;20044;-83
2023/05/06 04:25:18;;;;;;;11.70;10.60;;;;;;;;;;5093549;28;20048;-83
2023/05/06 04:27:44;;;;;;;11.85;10.25;;;;;;;;;;5094607;28;20054;-82
2023/05/06 04:30:11;;;;;;;12.68;11.20;;;;;;;;;;5093573;28;20097;-82
2023/05/06 04:32:37;;;;;;;15.65;11.10;;;;;;;;;;5076341;28;20040;-82
2023/05/06 04:35:03;;;;;;;14.65;10.43;;;;;;;;;;5093705;28;20135;-82
2023/05/06 04:37:30;;;;;;;16.25;11.45;;;;;;;;;;5077601;28;20100;-82
2023/05/06 04:39:56;;;;;;;22.17;11.70;;;;;;;;;;5076356;28;20058;-82
2023/05/06 04:42:23;;;;;;;13.40;10.85;;;;;;;;;;5094285;28;20050;-82
2023/05/06 04:44:49;;;;;;;28.30;13.77;;;;;;;;;;5095033;28;20082;-82
2023/05/06 04:47:15;;;;;;;138.93;38.35;;;;;;;;;;5076545;28;20087;-82
2023/05/06 04:49:42;;;;;;;13.25;11.90;;;;;;;;;;5076216;28;20051;-83
2023/05/06 04:52:08;;;;;;;45.85;20.70;;;;;;;;;;5093590;28;20040;-82
2023/05/06 04:54:34;;;;;;;12.82;11.50;;;;;;;;;;5093691;28;20048;-83
2023/05/06 04:57:01;;;;;;;21.27;13.55;;;;;;;;;;5093294;28;20056;-82
2023/05/06 04:59:27;;;;;;;33.65;14.52;;;;;;;;;;5092998;28;20063;-82
2023/05/06 05:01:53;;;;;;;12.48;11.57;;;;;;;;;;5093064;28;20468;-82
2023/05/06 05:04:19;;;;;;;11.43;10.52;;;;;;;;;;5093086;28;20075;-83
2023/05/06 05:06:45;;;;;;;9.95;9.25;;;;;;;;;;5059670;28;20044;-83
2023/05/06 05:09:11;;;;;;;12.07;11.07;;;;;;;;;;5076919;28;20048;-83
2023/05/06 05:11:37;;;;;;;11.57;10.57;;;;;;;;;;5092790;28;20051;-83
2023/05/06 05:14:03;;;;;;;12.05;10.85;;;;;;;;;;5075874;28;20048;-83
2023/05/06 05:16:30;;;;;;;24.23;13.55;;;;;;;;;;5092873;28;20051;-83
2023/05/06 05:18:56;;;;;;;74.35;18.50;;;;;;;;;;5077000;28;20055;-83
2023/05/06 05:21:22;;;;;;;23.55;12.75;;;;;;;;;;5076173;28;20043;-83
2023/05/06 05:23:48;;;;;;;46.15;13.50;;;;;;;;;;5076228;28;20052;-83
2023/05/06 05:26:14;;;;;;;26.65;13.00;;;;;;;;;;5075769;28;20052;-83
2023/05/06 05:28:40;;;;;;;92.25;16.30;;;;;;;;;;5092382;28;20484;-83
2023/05/06 05:31:06;;;;;;;23.73;10.02;;;;;;;;;;5092487;28;20048;-83
2023/05/06 05:33:32;;;;;;;16.70;12.02;;;;;;;;;;5092468;28;20066;-83
2023/05/06 05:35:58;;;;;;;11.75;10.55;;;;;;;;;;5075477;28;20063;-83
2023/05/06 05:38:24;;;;;;;13.90;11.90;;;;;;;;;;5075897;28;20047;-84
2023/05/06 05:40:50;;;;;;;29.92;11.80;;;;;;;;;;5093728;28;20044;-84
2023/05/06 05:43:18;;;;;;;11.77;10.77;;;;;;;;;;5075926;28;20083;-84
2023/05/06 05:45:44;;;;;;;21.50;11.75;;;;;;;;;;5092502;28;20052;-83
2023/05/06 05:48:10;;;;;;;47.63;15.30;;;;;;;;;;5093553;28;20051;-83
2023/05/06 05:50:36;;;;;;;43.65;12.52;;;;;;;;;;5092601;28;20190;-83
2023/05/06 05:53:02;;;;;;;17.45;12.85;;;;;;;;;;5092343;28;20174;-83
2023/05/06 05:55:29;;;;;;;98.90;18.45;;;;;;;;;;5092871;28;20191;-83
2023/05/06 05:57:55;;;;;;;15.95;14.18;;;;;;;;;;5093610;28;20062;-83
2023/05/06 06:00:21;;;;;;;14.82;13.40;;;;;;;;;;5075670;28;20044;-82
2023/05/06 06:02:47;;;;;;;18.55;13.40;;;;;;;;;;5075393;28;20044;-83
2023/05/06 06:05:13;;;;;;;17.80;16.02;;;;;;;;;;5059151;28;20055;-83
2023/05/06 06:07:40;;;;;;;15.80;14.32;;;;;;;;;;5059845;28;20052;-83
2023/05/06 06:10:06;;;;;;;38.42;23.30;;;;;;;;;;5076289;28;20062;-83
2023/05/06 06:12:32;;;;;;;22.10;19.85;;;;;;;;;;5075751;28;20094;-82
2023/05/06 06:14:58;;;;;;;21.38;19.13;;;;;;;;;;5077283;28;20055;-82
2023/05/06 06:17:24;;;;;;;26.98;22.67;;;;;;;;;;5096297;28;20417;-82
2023/05/06 06:19:50;;;;;;;44.38;28.35;;;;;;;;;;5096594;28;20044;-82
2023/05/06 06:22:16;;;;;;;23.02;20.80;;;;;;;;;;5096167;28;20055;-82
2023/05/06 06:24:43;;;;;;;29.13;26.00;;;;;;;;;;5078870;28;20135;-82
2023/05/06 06:27:09;;;;;;;25.08;22.48;;;;;;;;;;5096527;28;20435;-82
2023/05/06 06:29:35;;;;;;;27.08;24.23;;;;;;;;;;5078821;28;20055;-82
2023/05/06 06:32:02;;;;;;;28.80;25.20;;;;;;;;;;5095548;28;20043;-83
2023/05/06 06:34:28;;;;;;;24.92;22.38;;;;;;;;;;5113709;28;20099;-82
2023/05/06 06:36:54;;;;;;;24.75;22.15;;;;;;;;;;5095581;28;20040;-82
2023/05/06 06:39:20;;;;;;;25.13;22.27;;;;;;;;;;5078845;28;20046;-82
2023/05/06 06:41:47;;;;;;;28.25;25.00;;;;;;;;;;5096429;28;20147;-82
2023/05/06 06:44:13;;;;;;;25.13;22.52;;;;;;;;;;5095451;28;20089;-82
2023/05/06 06:46:39;;;;;;;27.05;23.50;;;;;;;;;;5061996;28;20051;-83
2023/05/06 06:49:05;;;;;;;24.83;22.45;;;;;;;;;;5080777;28;20477;-82
2023/05/06 06:51:31;;;;;;;26.70;23.92;;;;;;;;;;5082433;28;20051;-82
2023/05/06 06:53:57;;;;;;;25.88;23.40;;;;;;;;;;5081822;28;20036;-83
2023/05/06 06:56:23;;;;;;;26.95;24.15;;;;;;;;;;5117196;28;20066;-82
2023/05/06 06:58:49;;;;;;;25.33;22.73;;;;;;;;;;5098995;28;20130;-82
2023/05/06 07:01:15;;;;;;;29.58;26.42;;;;;;;;;;5098769;28;20146;-82
2023/05/06 07:03:41;;;;;;;28.20;25.17;;;;;;;;;;5098751;28;20100;-82
2023/05/06 07:06:08;;;;;;;28.80;25.83;;;;;;;;;;5098587;28;20043;-83
2023/05/06 07:08:34;;;;;;;28.35;25.35;;;;;;;;;;5116698;28;20050;-83
2023/05/06 07:11:00;;;;;;;27.95;25.10;;;;;;;;;;5081893;28;20383;-83
2023/05/06 07:13:26;;;;;;;30.05;26.02;;;;;;;;;;5099290;28;20071;-83
2023/05/06 07:15:52;;;;;;;28.52;25.40;;;;;;;;;;5081640;28;20048;-82
2023/05/06 07:18:18;;;;;;;29.30;26.10;;;;;;;;;;5098415;28;20058;-82
2023/05/06 07:20:44;;;;;;;29.27;26.10;;;;;;;;;;5098541;28;20101;-83
2023/05/06 07:23:10;;;;;;;30.30;27.10;;;;;;;;;;5081584;28;20145;-82
2023/05/06 07:25:36;;;;;;;30.63;27.27;;;;;;;;;;5098725;28;20360;-83
2023/05/06 07:28:02;;;;;;;31.33;27.75;;;;;;;;;;5081529;28;20097;-82
2023/05/06 07:30:28;;;;;;;31.42;27.67;;;;;;;;;;5081854;28;20051;-82
2023/05/06 07:32:54;;;;;;;29.63;26.50;;;;;;;;;;5098074;28;20044;-82
2023/05/06 07:35:21;;;;;;;31.13;28.00;;;;;;;;;;5081405;28;20047;-82
2023/05/06 07:37:47;;;;;;;28.52;25.63;;;;;;;;;;5081362;28;20060;-83
2023/05/06 07:40:13;;;;;;;27.45;24.58;;;;;;;;;;5098038;28;20172;-83
2023/05/06 07:42:40;;;;;;;27.75;24.75;;;;;;;;;;5081492;28;20043;-83
2023/05/06 07:45:06;;;;;;;29.20;26.08;;;;;;;;;;5081282;28;20475;-83
2023/05/06 07:47:32;;;;;;;27.75;24.90;;;;;;;;;;5081125;28;20391;-83
2023/05/06 07:49:59;;;;;;;28.15;25.15;;;;;;;;;;5098560;28;20052;-83
2023/05/06 07:52:25;;;;;;;26.55;23.88;;;;;;;;;;5097753;28;20130;-83
2023/05/06 07:54:51;;;;;;;26.00;23.23;;;;;;;;;;5116136;28;20046;-83
2023/05/06 07:57:17;;;;;;;25.65;22.92;;;;;;;;;;5065300;28;20079;-83
2023/05/06 07:59:43;;;;;;;22.95;20.65;;;;;;;;;;5097367;28;20055;-83
2023/05/06 08:02:10;;;;;;;26.20;22.33;;;;;;;;;;5081096;28;20046;-83
2023/05/06 08:04:36;;;;;;;26.70;23.88;;;;;;;;;;5097460;28;20471;-83
2023/05/06 08:07:02;;;;;;;26.65;23.88;;;;;;;;;;5098042;28;20055;-83
2023/05/06 08:09:28;;;;;;;25.75;22.67;;;;;;;;;;5115522;28;20051;-82
2023/05/06 08:11:54;;;;;;;28.05;25.10;;;;;;;;;;5115427;28;20081;-83
2023/05/06 08:14:20;;;;;;;28.58;25.00;;;;;;;;;;5115379;28;20047;-83
2023/05/06 08:16:46;;;;;;;30.45;27.15;;;;;;;;;;5115164;28;20083;-82
2023/05/06 08:19:13;;;;;;;31.52;28.17;;;;;;;;;;5115349;28;20051;-83
2023/05/06 08:21:39;;;;;;;32.97;27.77;;;;;;;;;;5097322;28;20498;-82
2023/05/06 08:24:05;;;;;;;30.30;27.02;;;;;;;;;;5098082;28;20063;-83
2023/05/06 08:26:31;;;;;;;30.13;26.23;;;;;;;;;;5097292;28;20047;-83
2023/05/06 08:28:58;;;;;;;29.42;26.30;;;;;;;;;;5080384;28;20051;-82
2023/05/06 08:31:24;;;;;;;27.77;24.80;;;;;;;;;;5080607;28;20052;-82
2023/05/06 08:33:50;;;;;;;25.30;21.77;;;;;;;;;;5096867;28;20043;-82
2023/05/06 08:36:16;;;;;;;26.83;21.65;;;;;;;;;;5097147;28;20055;-82
2023/05/06 08:38:49;;;;;;;21.13;19.00;;;;;;;;;;5079914;28;20047;-82
2023/05/06 08:41:17;;;;;;;17.50;15.80;;;;;;;;;;5080343;28;20043;-82
2023/05/06 08:43:45;;;;;;;15.45;13.95;;;;;;;;;;5096661;28;20079;-83
2023/05/06 08:46:12;;;;;;;11.00;10.05;;;;;;;;;;5096681;28;20043;-83
2023/05/06 08:48:38;;;;;;;7.82;7.15;;;;;;;;;;5114778;28;20044;-82
2023/05/06 08:51:04;;;;;;;7.50;7.00;;;;;;;;;;5079893;28;20080;-83
2023/05/06 08:53:32;;;;;;;9.48;8.68;;;;;;;;;;5096802;28;20047;-82
2023/05/06 08:56:02;;;;;;;11.40;10.38;;;;;;;;;;5096701;28;20467;-83
2023/05/06 08:58:30;;;;;;;12.32;11.27;;;;;;;;;;5096995;28;20076;-82
2023/05/06 09:00:56;;;;;;;11.00;10.00;;;;;;;;;;5096592;28;20055;-83
2023/05/06 09:03:22;;;;;;;8.07;7.43;;;;;;;;;;5096765;28;20044;-82
2023/05/06 09:05:48;;;;;;;9.95;8.95;;;;;;;;;;5114522;28;20047;-82
2023/05/06 09:08:14;;;;;;;10.38;9.38;;;;;;;;;;5096832;28;20044;-82
2023/05/06 09:10:44;;;;;;;13.73;12.43;;;;;;;;;;5095741;28;20055;-82
2023/05/06 09:13:15;;;;;;;14.85;13.30;;;;;;;;;;5096372;28;20050;-83
2023/05/06 09:15:42;;;;;;;15.63;14.23;;;;;;;;;;5079338;28;20063;-82
2023/05/06 09:18:08;;;;;;;13.60;12.30;;;;;;;;;;5096283;28;20065;-82
2023/05/06 09:20:35;;;;;;;13.07;11.98;;;;;;;;;;5063179;28;20047;-82
2023/05/06 09:23:02;;;;;;;15.57;14.10;;;;;;;;;;5113925;28;20540;-82
2023/05/06 09:25:28;;;;;;;16.77;14.15;;;;;;;;;;5096580;28;20400;-83
2023/05/06 09:28:05;;;;;;;24.73;13.20;;;;;;;;;;5096226;28;20426;-82
2023/05/06 09:30:31;;;;;;;13.75;12.45;;;;;;;;;;5097046;28;20052;-83
2023/05/06 09:32:57;;;;;;;14.93;13.63;;;;;;;;;;5095866;28;20511;-83
2023/05/06 09:35:27;;;;;;;30.52;12.60;;;;;;;;;;5095783;28;20083;-83
2023/05/06 09:37:53;;;;;;;10.73;9.82;;;;;;;;;;5096413;28;20426;-83
2023/05/06 09:40:19;;;;;;;12.63;11.52;;;;;;;;;;5096237;28;20043;-82
2023/05/06 09:42:49;;;;;;;10.70;9.88;;;;;;;;;;5114579;28;20093;-82
2023/05/06 09:45:15;;;;;;;11.50;10.38;;;;;;;;;;5096389;28;20097;-82
2023/05/06 09:47:42;;;;;;;11.38;10.30;;;;;;;;;;5095760;28;20044;-83
2023/05/06 09:50:08;;;;;;;10.65;9.80;;;;;;;;;;5095881;28;20089;-83
2023/05/06 09:52:34;;;;;;;11.15;10.23;;;;;;;;;;5095732;28;20395;-82
2023/05/06 09:55:01;;;;;;;10.98;10.07;;;;;;;;;;5095854;28;20055;-83
2023/05/06 09:57:29;;;;;;;9.32;8.13;;;;;;;;;;5079118;28;20043;-83
2023/05/06 09:59:57;;;;;;;5.78;5.45;;;;;;;;;;5096612;28;20375;-83
2023/05/06 10:02:23;;;;;;;5.80;5.40;;;;;;;;;;5095544;28;20039;-82
2023/05/06 10:04:49;;;;;;;5.10;4.70;;;;;;;;;;5095909;28;20046;-82
2023/05/06 10:07:17;;;;;;;6.63;6.13;;;;;;;;;;5114361;28;20054;-82
2023/05/06 10:09:43;;;;;;;7.18;6.47;;;;;;;;;;5113845;28;20048;-82
2023/05/06 10:12:09;;;;;;;6.72;6.07;;;;;;;;;;5062697;28;20056;-82
2023/05/06 10:14:38;;;;;;;6.45;5.93;;;;;;;;;;5113407;28;20502;-82
2023/05/06 10:17:08;;;;;;;6.63;6.13;;;;;;;;;;5079224;28;20058;-82
2023/05/06 10:19:35;;;;;;;7.35;6.75;;;;;;;;;;5096235;28;20047;-82
2023/05/06 10:22:07;;;;;;;8.25;7.65;;;;;;;;;;5114452;28;20548;-82
2023/05/06 10:24:36;;;;;;;7.72;7.15;;;;;;;;;;5099648;28;20430;-82
2023/05/06 10:27:05;;;;;;;8.57;7.80;;;;;;;;;;5100362;28;20040;-82
2023/05/06 10:29:31;;;;;;;8.32;7.70;;;;;;;;;;5099294;28;20403;-83
2023/05/06 10:31:59;;;;;;;8.70;8.07;;;;;;;;;;5082468;28;20047;-83
2023/05/06 10:34:25;;;;;;;8.65;7.97;;;;;;;;;;5099159;28;20064;-83
2023/05/06 10:36:55;;;;;;;8.77;8.07;;;;;;;;;;5099549;28;20048;-83
2023/05/06 10:39:21;;;;;;;9.05;8.35;;;;;;;;;;5117808;28;20380;-83
2023/05/06 10:41:48;;;;;;;10.85;9.70;;;;;;;;;;5117276;28;20047;-83
2023/05/06 10:44:14;;;;;;;9.68;8.77;;;;;;;;;;5082164;28;20054;-83
2023/05/06 10:46:57;;;;;;;10.45;9.65;;;;;;;;;;5117884;28;20047;-83
2023/05/06 10:49:23;;;;;;;10.77;9.88;;;;;;;;;;5099160;28;20043;-83
2023/05/06 10:52:08;;;;;;;11.00;10.18;;;;;;;;;;5099112;28;20048;-83
2023/05/06 10:54:46;;;;;;;10.60;9.70;;;;;;;;;;5099131;28;20044;-83
2023/05/06 10:57:12;;;;;;;11.35;10.25;;;;;;;;;;5117091;28;20043;-84
2023/05/06 10:59:45;;;;;;;11.05;10.05;;;;;;;;;;5116956;28;20051;-83
2023/05/06 11:02:11;;;;;;;11.45;10.45;;;;;;;;;;5117713;28;20082;-83
2023/05/06 11:04:37;;;;;;;10.68;9.70;;;;;;;;;;5066300;28;20043;-82
2023/05/06 11:07:10;;;;;;;10.65;9.75;;;;;;;;;;5081901;28;20051;-82
2023/05/06 11:09:55;;;;;;;11.63;10.63;;;;;;;;;;5117321;28;20044;-82
2023/05/06 11:12:21;;;;;;;11.38;10.48;;;;;;;;;;5099236;28;20090;-82
2023/05/06 11:14:47;;;;;;;10.43;9.63;;;;;;;;;;5081361;28;20089;-83
2023/05/06 11:17:31;;;;;;;11.27;10.38;;;;;;;;;;5116970;28;20120;-83
2023/05/06 11:20:31;;;;;;;11.40;10.30;;;;;;;;;;5098366;28;20108;-82
2023/05/06 11:22:57;;;;;;;11.70;10.70;;;;;;;;;;5044020;28;20063;-83
2023/05/06 11:25:43;;;;;;;12.75;11.45;;;;;;;;;;5097954;28;20040;-82
2023/05/06 11:28:10;;;;;;;11.45;10.27;;;;;;;;;;5117005;28;20054;-83
2023/05/06 11:30:38;;;;;;;12.30;11.23;;;;;;;;;;5082352;28;20054;-82
2023/05/06 11:33:04;;;;;;;12.15;11.25;;;;;;;;;;5098082;28;20430;-83
2023/05/06 11:35:37;;;;;;;14.90;13.50;;;;;;;;;;5080983;28;20156;-82
2023/05/06 11:38:03;;;;;;;13.50;12.50;;;;;;;;;;5081307;28;20044;-82
2023/05/06 11:40:30;;;;;;;14.00;12.73;;;;;;;;;;5081280;28;20483;-83
2023/05/06 11:43:09;;;;;;;12.13;11.02;;;;;;;;;;5098119;28;20051;-83
2023/05/06 11:45:45;;;;;;;10.80;10.10;;;;;;;;;;5097951;28;20050;-82
2023/05/06 11:48:14;;;;;;;11.68;10.77;;;;;;;;;;5098711;28;20371;-82
2023/05/06 11:50:46;;;;;;;11.52;10.48;;;;;;;;;;5098171;28;20130;-82
2023/05/06 11:53:12;;;;;;;12.35;11.35;;;;;;;;;;5098652;28;20169;-82
2023/05/06 11:55:38;;;;;;;11.95;10.95;;;;;;;;;;5097876;28;20036;-82
2023/05/06 11:58:04;;;;;;;11.90;10.90;;;;;;;;;;5064172;28;20043;-82
2023/05/06 12:00:30;;;;;;;11.45;10.48;;;;;;;;;;5080747;28;20043;-82
2023/05/06 12:02:56;;;;;;;11.30;10.30;;;;;;;;;;5115591;28;20039;-82
2023/05/06 12:05:23;;;;;;;11.10;10.20;;;;;;;;;;5081385;28;20109;-83
2023/05/06 12:07:49;;;;;;;10.07;9.23;;;;;;;;;;5097546;28;20425;-82
2023/05/06 12:10:16;;;;;;;11.15;10.40;;;;;;;;;;5081119;28;20433;-83
2023/05/06 12:12:42;;;;;;;10.95;9.85;;;;;;;;;;5080527;28;20085;-83
2023/05/06 12:15:09;;;;;;;10.55;9.85;;;;;;;;;;5097895;28;20096;-83
2023/05/06 12:17:35;;;;;;;11.10;10.18;;;;;;;;;;5081401;28;20074;-82
2023/05/06 12:20:01;;;;;;;11.00;9.95;;;;;;;;;;5114998;28;20402;-82
2023/05/06 12:22:27;;;;;;;11.07;9.98;;;;;;;;;;5115899;28;20126;-82
2023/05/06 12:24:53;;;;;;;11.23;10.23;;;;;;;;;;5080498;28;20130;-83
2023/05/06 12:27:32;;;;;;;12.27;10.98;;;;;;;;;;5097487;28;20043;-82
2023/05/06 12:29:59;;;;;;;17.25;12.13;;;;;;;;;;5097114;28;20051;-82
2023/05/06 12:32:25;;;;;;;12.00;11.00;;;;;;;;;;5097108;28;20043;-82
2023/05/06 12:34:52;;;;;;;12.50;11.43;;;;;;;;;;5079903;28;20055;-82
2023/05/06 12:37:28;;;;;;;11.05;10.18;;;;;;;;;;5097678;28;20059;-82
2023/05/06 12:39:54;;;;;;;11.57;10.88;;;;;;;;;;5097037;28;20132;-82
2023/05/06 12:42:21;;;;;;;10.65;9.88;;;;;;;;;;5115445;28;20436;-82
2023/05/06 12:44:47;;;;;;;11.18;10.27;;;;;;;;;;5080909;28;20075;-84
2023/05/06 12:47:20;;;;;;;11.98;10.98;;;;;;;;;;5079983;28;20476;-83
2023/05/06 12:49:57;;;;;;;10.60;9.80;;;;;;;;;;5096681;28;20044;-82
2023/05/06 12:52:24;;;;;;;12.30;11.40;;;;;;;;;;5096770;28;20419;-83
2023/05/06 12:54:51;;;;;;;13.18;12.27;;;;;;;;;;5096431;28;20050;-83
2023/05/06 12:57:17;;;;;;;12.68;11.68;;;;;;;;;;5096766;28;20088;-82
2023/05/06 12:59:44;;;;;;;15.07;14.07;;;;;;;;;;5097258;28;20144;-83
2023/05/06 13:02:10;;;;;;;17.25;15.93;;;;;;;;;;5096530;28;20471;-83
2023/05/06 13:04:36;;;;;;;16.10;14.60;;;;;;;;;;5096607;28;20471;-83
2023/05/06 13:07:02;;;;;;;15.07;13.88;;;;;;;;;;5114476;28;20043;-83
2023/05/06 13:09:29;;;;;;;14.73;13.73;;;;;;;;;;5097084;28;20105;-84
2023/05/06 13:11:55;;;;;;;13.93;12.80;;;;;;;;;;5079455;28;20052;-82
2023/05/06 13:14:21;;;;;;;15.38;14.18;;;;;;;;;;5096439;28;20035;-84
2023/05/06 13:16:49;;;;;;;12.95;12.02;;;;;;;;;;5096515;28;20108;-82
2023/05/06 13:19:15;;;;;;;12.05;10.95;;;;;;;;;;5096365;28;20441;-82
2023/05/06 13:21:41;;;;;;;9.40;8.50;;;;;;;;;;5096332;28;20134;-83
2023/05/06 13:24:08;;;;;;;10.40;9.40;;;;;;;;;;5063659;28;20044;-85
2023/05/06 13:26:34;;;;;;;10.73;9.73;;;;;;;;;;5095648;28;20561;-83
2023/05/06 13:29:01;;;;;;;10.88;10.02;;;;;;;;;;5097083;28;20044;-83
2023/05/06 13:31:27;;;;;;;11.85;10.95;;;;;;;;;;5079169;28;20508;-83
2023/05/06 13:33:54;;;;;;;10.77;9.98;;;;;;;;;;5096224;28;20134;-83
2023/05/06 13:36:20;;;;;;;12.13;11.23;;;;;;;;;;5114040;28;20048;-83
2023/05/06 13:38:46;;;;;;;11.50;10.60;;;;;;;;;;5114368;28;20047;-82
2023/05/06 13:41:13;;;;;;;11.27;10.57;;;;;;;;;;5096016;28;20051;-83
2023/05/06 13:43:39;;;;;;;10.65;9.75;;;;;;;;;;5096093;28;20056;-83
2023/05/06 13:46:05;;;;;;;9.02;8.43;;;;;;;;;;5113678;28;20403;-80
2023/05/06 13:48:31;;;;;;;8.75;8.15;;;;;;;;;;5096305;28;20061;-84
2023/05/06 13:50:57;;;;;;;8.50;7.97;;;;;;;;;;5114090;28;20048;-82
2023/05/06 13:53:23;;;;;;;10.40;9.70;;;;;;;;;;5095887;28;20079;-82
2023/05/06 13:55:49;;;;;;;9.55;8.88;;;;;;;;;;5095559;28;20513;-82
2023/05/06 13:58:16;;;;;;;11.38;10.48;;;;;;;;;;5099493;28;20050;-82
2023/05/06 14:00:42;;;;;;;14.25;13.05;;;;;;;;;;5100027;28;20047;-82
2023/05/06 14:03:08;;;;;;;19.10;17.40;;;;;;;;;;5117926;28;20046;-82
2023/05/06 14:05:34;;;;;;;21.58;19.67;;;;;;;;;;5117639;28;20403;-83
2023/05/06 14:08:00;;;;;;;18.85;17.20;;;;;;;;;;5099995;28;20075;-82
2023/05/06 14:10:26;;;;;;;17.70;16.20;;;;;;;;;;5099929;28;20511;-83
2023/05/06 14:12:52;;;;;;;17.02;15.63;;;;;;;;;;5118256;28;20084;-82
2023/05/06 14:15:19;;;;;;;16.45;15.13;;;;;;;;;;5099508;28;20055;-82
2023/05/06 14:17:48;;;;;;;14.60;13.40;;;;;;;;;;5117838;28;20100;-82
2023/05/06 14:20:15;;;;;;;12.55;11.48;;;;;;;;;;5082846;28;20047;-82
2023/05/06 14:22:41;;;;;;;13.32;12.40;;;;;;;;;;5082712;28;20087;-83
2023/05/06 14:25:07;;;;;;;10.73;9.82;;;;;;;;;;5118464;28;20096;-82
2023/05/06 14:27:34;;;;;;;8.20;7.57;;;;;;;;;;5099617;28;20070;-83